sensor_id;sensor_type;location;lat;lon;timestamp;temperature;humidity
38239;DHT22;24035;48.900;9.188;2024-01-11T00:00:16;-5.70;99.90
38239;DHT22;24035;48.900;9.188;2024-01-11T00:02:42;-5.80;92.60
38239;DHT22;24035;48.900;9.188;2024-01-11T00:05:08;-5.80;61.70
38239;DHT22;24035;48.900;9.188;2024-01-11T00:07:34;-5.80;99.90
38239;DHT22;24035;48.900;9.188;2024-01-11T00:10:01;-5.80;99.90
38239;DHT22;24035;48.900;9.188;2024-01-11T00:12:27;-5.90;99.90
38239;DHT22;24035;48.900;9.188;2024-01-11T00:14:53;-5.80;99.90
38239;DHT22;24035;48.900;9.188;2024-01-11T00:17:19;-5.70;1.00
38239;DHT22;24035;48.900;9.188;2024-01-11T00:19:44;-5.80;99.90
38239;DHT22;24035;48.900;9.188;2024-01-11T00:22:10;-5.80;99.90
38239;DHT22;24035;48.900;9.188;2024-01-11T00:24:36;-5.90;99.90
38239;DHT22;24035;48.900;9.188;2024-01-11T00:27:01;-6.00;99.90
38239;DHT22;24035;48.900;9.188;2024-01-11T00:29:27;-6.00;99.90
38239;DHT22;24035;48.900;9.188;2024-01-11T00:31:54;-6.00;1.00
38239;DHT22;24035;48.900;9.188;2024-01-11T00:34:20;-6.00;1.00
38239;DHT22;24035;48.900;9.188;2024-01-11T00:36:47;-6.00;99.90
38239;DHT22;24035;48.900;9.188;2024-01-11T00:39:13;-6.10;99.90
38239;DHT22;24035;48.900;9.188;2024-01-11T00:41:38;-6.10;1.00
38239;DHT22;24035;48.900;9.188;2024-01-11T00:44:05;-6.00;1.00
38239;DHT22;24035;48.900;9.188;2024-01-11T00:46:33;-5.90;1.00
38239;DHT22;24035;48.900;9.188;2024-01-11T00:48:59;-6.00;1.00
38239;DHT22;24035;48.900;9.188;2024-01-11T00:51:25;-6.00;1.00
38239;DHT22;24035;48.900;9.188;2024-01-11T00:53:51;-6.10;1.00
38239;DHT22;24035;48.900;9.188;2024-01-11T00:56:20;-6.10;1.00
38239;DHT22;24035;48.900;9.188;2024-01-11T00:58:46;-6.10;1.00
38239;DHT22;24035;48.900;9.188;2024-01-11T01:01:12;-6.10;1.00
38239;DHT22;24035;48.900;9.188;2024-01-11T01:03:38;-6.10;1.00
38239;DHT22;24035;48.900;9.188;2024-01-11T01:06:05;-6.00;1.00
38239;DHT22;24035;48.900;9.188;2024-01-11T01:08:31;-6.00;1.00
38239;DHT22;24035;48.900;9.188;2024-01-11T01:10:56;-5.90;1.00
38239;DHT22;24035;48.900;9.188;2024-01-11T01:13:22;-5.90;1.00
38239;DHT22;24035;48.900;9.188;2024-01-11T01:15:48;-6.00;1.00
38239;DHT22;24035;48.900;9.188;2024-01-11T01:18:14;-6.00;1.00
38239;DHT22;24035;48.900;9.188;2024-01-11T01:20:40;-6.00;1.00
38239;DHT22;24035;48.900;9.188;2024-01-11T01:23:05;-6.10;1.00
38239;DHT22;24035;48.900;9.188;2024-01-11T01:25:31;-6.00;1.00
38239;DHT22;24035;48.900;9.188;2024-01-11T01:27:58;-6.00;1.00
38239;DHT22;24035;48.900;9.188;2024-01-11T01:30:26;-6.10;1.00
38239;DHT22;24035;48.900;9.188;2024-01-11T01:32:52;-6.20;1.00
38239;DHT22;24035;48.900;9.188;2024-01-11T01:35:17;-6.20;1.00
38239;DHT22;24035;48.900;9.188;2024-01-11T01:37:43;-6.20;1.00
38239;DHT22;24035;48.900;9.188;2024-01-11T01:40:10;-6.10;90.00
38239;DHT22;24035;48.900;9.188;2024-01-11T01:42:40;-6.10;48.20
38239;DHT22;24035;48.900;9.188;2024-01-11T01:45:06;-6.10;96.80
38239;DHT22;24035;48.900;9.188;2024-01-11T01:47:32;-6.10;99.90
38239;DHT22;24035;48.900;9.188;2024-01-11T01:50:00;-6.10;50.50
38239;DHT22;24035;48.900;9.188;2024-01-11T01:52:26;-6.20;1.00
38239;DHT22;24035;48.900;9.188;2024-01-11T01:54:52;-6.20;1.00
38239;DHT22;24035;48.900;9.188;2024-01-11T01:57:19;-6.30;1.00
38239;DHT22;24035;48.900;9.188;2024-01-11T01:59:51;-6.30;61.90
38239;DHT22;24035;48.900;9.188;2024-01-11T02:02:20;-6.30;1.00
38239;DHT22;24035;48.900;9.188;2024-01-11T02:04:47;-6.30;1.00
38239;DHT22;24035;48.900;9.188;2024-01-11T02:07:13;-6.40;1.00
38239;DHT22;24035;48.900;9.188;2024-01-11T02:09:40;-6.40;89.10
38239;DHT22;24035;48.900;9.188;2024-01-11T02:12:06;-6.40;33.80
38239;DHT22;24035;48.900;9.188;2024-01-11T02:14:34;-6.40;39.00
38239;DHT22;24035;48.900;9.188;2024-01-11T02:17:02;-6.40;99.90
38239;DHT22;24035;48.900;9.188;2024-01-11T02:19:31;-6.40;99.90
38239;DHT22;24035;48.900;9.188;2024-01-11T02:22:15;-6.40;99.90
38239;DHT22;24035;48.900;9.188;2024-01-11T02:24:44;-6.40;99.90
38239;DHT22;24035;48.900;9.188;2024-01-11T02:27:10;-6.40;99.90
38239;DHT22;24035;48.900;9.188;2024-01-11T02:29:36;-6.50;99.90
38239;DHT22;24035;48.900;9.188;2024-01-11T02:32:02;-6.50;99.90
38239;DHT22;24035;48.900;9.188;2024-01-11T02:34:29;-6.50;99.90
38239;DHT22;24035;48.900;9.188;2024-01-11T02:36:55;-6.30;1.00
38239;DHT22;24035;48.900;9.188;2024-01-11T02:39:23;-6.30;99.90
38239;DHT22;24035;48.900;9.188;2024-01-11T02:41:50;-6.40;59.00
38239;DHT22;24035;48.900;9.188;2024-01-11T02:44:16;-6.40;22.00
38239;DHT22;24035;48.900;9.188;2024-01-11T02:46:42;-6.40;1.00
38239;DHT22;24035;48.900;9.188;2024-01-11T02:49:08;-6.40;1.00
38239;DHT22;24035;48.900;9.188;2024-01-11T02:51:34;-6.40;1.00
38239;DHT22;24035;48.900;9.188;2024-01-11T02:53:59;-6.40;1.00
38239;DHT22;24035;48.900;9.188;2024-01-11T02:56:25;-6.40;1.00
38239;DHT22;24035;48.900;9.188;2024-01-11T02:58:51;-6.50;1.00
38239;DHT22;24035;48.900;9.188;2024-01-11T03:01:17;-6.60;1.00
38239;DHT22;24035;48.900;9.188;2024-01-11T03:03:42;-6.60;1.00
38239;DHT22;24035;48.900;9.188;2024-01-11T03:06:08;-6.70;99.90
38239;DHT22;24035;48.900;9.188;2024-01-11T03:08:34;-6.70;99.90
38239;DHT22;24035;48.900;9.188;2024-01-11T03:10:59;-6.70;99.90
38239;DHT22;24035;48.900;9.188;2024-01-11T03:13:25;-6.80;99.90
38239;DHT22;24035;48.900;9.188;2024-01-11T03:15:51;-6.70;99.90
38239;DHT22;24035;48.900;9.188;2024-01-11T03:18:17;-6.70;99.90
38239;DHT22;24035;48.900;9.188;2024-01-11T03:20:42;-6.70;99.90
38239;DHT22;24035;48.900;9.188;2024-01-11T03:23:08;-6.80;99.90
38239;DHT22;24035;48.900;9.188;2024-01-11T03:25:34;-6.80;99.90
38239;DHT22;24035;48.900;9.188;2024-01-11T03:28:00;-6.80;99.90
38239;DHT22;24035;48.900;9.188;2024-01-11T03:30:26;-6.90;99.90
38239;DHT22;24035;48.900;9.188;2024-01-11T03:32:51;-6.90;99.90
38239;DHT22;24035;48.900;9.188;2024-01-11T03:35:18;-6.80;99.90
38239;DHT22;24035;48.900;9.188;2024-01-11T03:37:44;-6.80;99.90
38239;DHT22;24035;48.900;9.188;2024-01-11T03:40:10;-6.90;99.90
38239;DHT22;24035;48.900;9.188;2024-01-11T03:42:36;-6.90;99.90
38239;DHT22;24035;48.900;9.188;2024-01-11T03:45:04;-6.90;99.90
38239;DHT22;24035;48.900;9.188;2024-01-11T03:47:30;-7.00;99.90
38239;DHT22;24035;48.900;9.188;2024-01-11T03:49:56;-7.00;99.90
38239;DHT22;24035;48.900;9.188;2024-01-11T03:52:21;-6.90;99.90
38239;DHT22;24035;48.900;9.188;2024-01-11T03:54:47;-6.80;1.00
38239;DHT22;24035;48.900;9.188;2024-01-11T03:57:13;-6.80;1.00
38239;DHT22;24035;48.900;9.188;2024-01-11T03:59:40;-6.80;1.00
38239;DHT22;24035;48.900;9.188;2024-01-11T04:02:05;-6.70;1.00
38239;DHT22;24035;48.900;9.188;2024-01-11T04:04:32;-6.70;1.00
38239;DHT22;24035;48.900;9.188;2024-01-11T04:06:58;-6.80;1.00
38239;DHT22;24035;48.900;9.188;2024-01-11T04:09:24;-6.70;1.00
38239;DHT22;24035;48.900;9.188;2024-01-11T04:11:49;-6.80;99.90
38239;DHT22;24035;48.900;9.188;2024-01-11T04:14:15;-6.80;1.00
38239;DHT22;24035;48.900;9.188;2024-01-11T04:16:42;-6.90;99.90
38239;DHT22;24035;48.900;9.188;2024-01-11T04:19:08;-6.80;1.00
38239;DHT22;24035;48.900;9.188;2024-01-11T04:21:34;-6.80;1.00
38239;DHT22;24035;48.900;9.188;2024-01-11T04:23:59;-6.70;1.00
38239;DHT22;24035;48.900;9.188;2024-01-11T04:26:25;-6.70;1.00
38239;DHT22;24035;48.900;9.188;2024-01-11T04:28:52;-6.80;1.00
38239;DHT22;24035;48.900;9.188;2024-01-11T04:31:18;-6.80;1.00
38239;DHT22;24035;48.900;9.188;2024-01-11T04:33:44;-6.80;1.00
38239;DHT22;24035;48.900;9.188;2024-01-11T04:36:11;-6.80;1.00
38239;DHT22;24035;48.900;9.188;2024-01-11T04:38:37;-6.90;99.90
38239;DHT22;24035;48.900;9.188;2024-01-11T04:41:12;-7.00;99.90
38239;DHT22;24035;48.900;9.188;2024-01-11T04:43:39;-7.00;99.90
38239;DHT22;24035;48.900;9.188;2024-01-11T04:46:21;-7.10;99.90
38239;DHT22;24035;48.900;9.188;2024-01-11T04:48:48;-7.10;99.90
38239;DHT22;24035;48.900;9.188;2024-01-11T04:51:15;-7.10;99.90
38239;DHT22;24035;48.900;9.188;2024-01-11T04:53:42;-7.20;99.90
38239;DHT22;24035;48.900;9.188;2024-01-11T04:56:08;-7.10;99.90
38239;DHT22;24035;48.900;9.188;2024-01-11T04:58:35;-7.00;99.90
38239;DHT22;24035;48.900;9.188;2024-01-11T05:01:04;-7.00;99.90
38239;DHT22;24035;48.900;9.188;2024-01-11T05:03:31;-7.10;99.90
38239;DHT22;24035;48.900;9.188;2024-01-11T05:05:57;-7.10;99.90
38239;DHT22;24035;48.900;9.188;2024-01-11T05:08:23;-7.10;1.00
38239;DHT22;24035;48.900;9.188;2024-01-11T05:10:49;-7.10;1.00
38239;DHT22;24035;48.900;9.188;2024-01-11T05:13:16;-7.10;1.00
38239;DHT22;24035;48.900;9.188;2024-01-11T05:15:42;-7.00;1.00
38239;DHT22;24035;48.900;9.188;2024-01-11T05:18:08;-7.00;99.90
38239;DHT22;24035;48.900;9.188;2024-01-11T05:20:33;-7.10;99.90
38239;DHT22;24035;48.900;9.188;2024-01-11T05:22:59;-7.00;1.00
38239;DHT22;24035;48.900;9.188;2024-01-11T05:25:26;-7.00;1.00
38239;DHT22;24035;48.900;9.188;2024-01-11T05:27:52;-7.10;99.90
38239;DHT22;24035;48.900;9.188;2024-01-11T05:30:18;-7.10;99.90
38239;DHT22;24035;48.900;9.188;2024-01-11T05:32:43;-7.20;99.90
38239;DHT22;24035;48.900;9.188;2024-01-11T05:35:09;-7.10;99.90
38239;DHT22;24035;48.900;9.188;2024-01-11T05:37:36;-7.10;1.00
38239;DHT22;24035;48.900;9.188;2024-01-11T05:40:02;-7.00;1.00
38239;DHT22;24035;48.900;9.188;2024-01-11T05:42:29;-7.00;1.00
38239;DHT22;24035;48.900;9.188;2024-01-11T05:44:55;-7.00;1.00
38239;DHT22;24035;48.900;9.188;2024-01-11T05:47:20;-7.00;1.00
38239;DHT22;24035;48.900;9.188;2024-01-11T05:49:46;-7.00;1.00
38239;DHT22;24035;48.900;9.188;2024-01-11T05:52:13;-7.10;99.90
38239;DHT22;24035;48.900;9.188;2024-01-11T05:54:39;-7.10;99.90
38239;DHT22;24035;48.900;9.188;2024-01-11T05:57:05;-7.10;1.00
38239;DHT22;24035;48.900;9.188;2024-01-11T05:59:30;-7.00;1.00
38239;DHT22;24035;48.900;9.188;2024-01-11T06:01:56;-7.10;1.00
38239;DHT22;24035;48.900;9.188;2024-01-11T06:04:26;-7.10;1.00
38239;DHT22;24035;48.900;9.188;2024-01-11T06:06:52;-7.10;1.00
38239;DHT22;24035;48.900;9.188;2024-01-11T06:09:18;-7.10;1.00
38239;DHT22;24035;48.900;9.188;2024-01-11T06:11:44;-7.10;1.00
38239;DHT22;24035;48.900;9.188;2024-01-11T06:14:09;-7.20;1.00
38239;DHT22;24035;48.900;9.188;2024-01-11T06:16:35;-7.10;1.00
38239;DHT22;24035;48.900;9.188;2024-01-11T06:19:02;-7.00;1.00
38239;DHT22;24035;48.900;9.188;2024-01-11T06:21:28;-7.00;1.00
38239;DHT22;24035;48.900;9.188;2024-01-11T06:23:54;-7.00;1.00
38239;DHT22;24035;48.900;9.188;2024-01-11T06:26:19;-6.90;1.00
38239;DHT22;24035;48.900;9.188;2024-01-11T06:28:45;-7.00;1.00
38239;DHT22;24035;48.900;9.188;2024-01-11T06:31:11;-7.10;99.90
38239;DHT22;24035;48.900;9.188;2024-01-11T06:33:37;-7.10;1.00
38239;DHT22;24035;48.900;9.188;2024-01-11T06:36:07;-7.20;99.90
38239;DHT22;24035;48.900;9.188;2024-01-11T06:38:33;-7.10;1.00
38239;DHT22;24035;48.900;9.188;2024-01-11T06:40:59;-7.10;1.00
38239;DHT22;24035;48.900;9.188;2024-01-11T06:43:25;-7.20;1.00
38239;DHT22;24035;48.900;9.188;2024-01-11T06:45:51;-7.20;1.00
38239;DHT22;24035;48.900;9.188;2024-01-11T06:48:18;-7.20;1.00
38239;DHT22;24035;48.900;9.188;2024-01-11T06:50:44;-7.10;1.00
38239;DHT22;24035;48.900;9.188;2024-01-11T06:53:09;-7.10;1.00
38239;DHT22;24035;48.900;9.188;2024-01-11T06:55:35;-7.00;1.00
38239;DHT22;24035;48.900;9.188;2024-01-11T06:58:01;-7.00;50.20
38239;DHT22;24035;48.900;9.188;2024-01-11T07:00:27;-7.00;29.90
38239;DHT22;24035;48.900;9.188;2024-01-11T07:02:53;-6.20;99.90
38239;DHT22;24035;48.900;9.188;2024-01-11T07:05:19;-5.90;99.90
38239;DHT22;24035;48.900;9.188;2024-01-11T07:07:45;-5.60;1.00
38239;DHT22;24035;48.900;9.188;2024-01-11T07:10:11;-5.20;1.00
38239;DHT22;24035;48.900;9.188;2024-01-11T07:12:38;-5.40;78.90
38239;DHT22;24035;48.900;9.188;2024-01-11T07:15:04;-5.30;1.00
38239;DHT22;24035;48.900;9.188;2024-01-11T07:17:30;-5.60;99.90
38239;DHT22;24035;48.900;9.188;2024-01-11T07:19:56;-5.70;99.90
38239;DHT22;24035;48.900;9.188;2024-01-11T07:22:22;-5.30;99.90
38239;DHT22;24035;48.900;9.188;2024-01-11T07:24:48;-5.40;1.00
38239;DHT22;24035;48.900;9.188;2024-01-11T07:27:13;-5.60;99.90
38239;DHT22;24035;48.900;9.188;2024-01-11T07:29:39;-5.80;1.00
38239;DHT22;24035;48.900;9.188;2024-01-11T07:32:05;-5.90;1.00
38239;DHT22;24035;48.900;9.188;2024-01-11T07:34:32;-6.10;1.00
38239;DHT22;24035;48.900;9.188;2024-01-11T07:36:58;-6.10;1.00
38239;DHT22;24035;48.900;9.188;2024-01-11T07:39:24;-6.20;1.00
38239;DHT22;24035;48.900;9.188;2024-01-11T07:41:50;-6.30;1.00
38239;DHT22;24035;48.900;9.188;2024-01-11T07:44:15;-6.40;1.00
38239;DHT22;24035;48.900;9.188;2024-01-11T07:46:42;-6.40;1.00
38239;DHT22;24035;48.900;9.188;2024-01-11T07:49:08;-6.30;1.00
38239;DHT22;24035;48.900;9.188;2024-01-11T07:51:34;-6.30;1.00
38239;DHT22;24035;48.900;9.188;2024-01-11T07:54:02;-6.30;1.00
38239;DHT22;24035;48.900;9.188;2024-01-11T07:56:29;-6.30;1.00
38239;DHT22;24035;48.900;9.188;2024-01-11T07:58:55;-6.30;1.00
38239;DHT22;24035;48.900;9.188;2024-01-11T08:01:20;-6.30;1.00
38239;DHT22;24035;48.900;9.188;2024-01-11T08:03:46;-6.30;1.00
38239;DHT22;24035;48.900;9.188;2024-01-11T08:06:13;-6.30;1.00
38239;DHT22;24035;48.900;9.188;2024-01-11T08:08:39;-6.20;99.90
38239;DHT22;24035;48.900;9.188;2024-01-11T08:11:07;-6.10;99.90
38239;DHT22;24035;48.900;9.188;2024-01-11T08:13:33;-6.00;99.90
38239;DHT22;24035;48.900;9.188;2024-01-11T08:16:04;-6.00;99.90
38239;DHT22;24035;48.900;9.188;2024-01-11T08:18:33;-6.00;99.90
38239;DHT22;24035;48.900;9.188;2024-01-11T08:20:59;-5.90;99.90
38239;DHT22;24035;48.900;9.188;2024-01-11T08:23:24;-5.90;99.90
38239;DHT22;24035;48.900;9.188;2024-01-11T08:25:50;-5.90;99.90
38239;DHT22;24035;48.900;9.188;2024-01-11T08:28:18;-5.90;99.90
38239;DHT22;24035;48.900;9.188;2024-01-11T08:30:44;-5.90;99.90
38239;DHT22;24035;48.900;9.188;2024-01-11T08:33:09;-5.80;99.90
38239;DHT22;24035;48.900;9.188;2024-01-11T08:35:35;-5.70;99.90
38239;DHT22;24035;48.900;9.188;2024-01-11T08:38:01;-5.70;99.90
38239;DHT22;24035;48.900;9.188;2024-01-11T08:40:28;-5.80;99.90
38239;DHT22;24035;48.900;9.188;2024-01-11T08:42:54;-5.70;99.90
38239;DHT22;24035;48.900;9.188;2024-01-11T08:45:19;-5.50;99.90
38239;DHT22;24035;48.900;9.188;2024-01-11T08:47:47;-5.50;99.90
38239;DHT22;24035;48.900;9.188;2024-01-11T08:50:14;-5.50;99.90
38239;DHT22;24035;48.900;9.188;2024-01-11T08:52:42;-5.40;99.90
38239;DHT22;24035;48.900;9.188;2024-01-11T08:55:08;-5.40;99.90
38239;DHT22;24035;48.900;9.188;2024-01-11T08:57:34;-5.30;99.90
38239;DHT22;24035;48.900;9.188;2024-01-11T09:00:03;-5.30;99.90
38239;DHT22;24035;48.900;9.188;2024-01-11T09:02:31;-5.20;99.90
38239;DHT22;24035;48.900;9.188;2024-01-11T09:04:58;-5.20;99.90
38239;DHT22;24035;48.900;9.188;2024-01-11T09:07:24;-5.10;99.90
38239;DHT22;24035;48.900;9.188;2024-01-11T09:09:50;-5.10;99.90
38239;DHT22;24035;48.900;9.188;2024-01-11T09:12:16;-5.00;81.40
38239;DHT22;24035;48.900;9.188;2024-01-11T09:14:41;-5.00;62.80
38239;DHT22;24035;48.900;9.188;2024-01-11T09:17:07;-4.80;99.90
38239;DHT22;24035;48.900;9.188;2024-01-11T09:19:33;-4.80;1.00
38239;DHT22;24035;48.900;9.188;2024-01-11T09:21:59;-4.80;1.00
38239;DHT22;24035;48.900;9.188;2024-01-11T09:24:25;-4.70;1.00
38239;DHT22;24035;48.900;9.188;2024-01-11T09:26:51;-4.70;99.90
38239;DHT22;24035;48.900;9.188;2024-01-11T09:29:17;-4.70;1.10
38239;DHT22;24035;48.900;9.188;2024-01-11T09:31:43;-4.60;1.00
38239;DHT22;24035;48.900;9.188;2024-01-11T09:34:09;-4.60;1.00
38239;DHT22;24035;48.900;9.188;2024-01-11T09:36:34;-4.50;1.00
38239;DHT22;24035;48.900;9.188;2024-01-11T09:39:01;-4.40;1.00
38239;DHT22;24035;48.900;9.188;2024-01-11T09:41:28;-4.40;1.00
38239;DHT22;24035;48.900;9.188;2024-01-11T09:43:56;-4.40;1.00
38239;DHT22;24035;48.900;9.188;2024-01-11T09:46:25;-4.30;1.00
38239;DHT22;24035;48.900;9.188;2024-01-11T09:48:51;-4.30;1.00
38239;DHT22;24035;48.900;9.188;2024-01-11T09:51:18;-4.20;99.90
38239;DHT22;24035;48.900;9.188;2024-01-11T09:53:44;-4.10;99.90
38239;DHT22;24035;48.900;9.188;2024-01-11T09:56:10;-4.10;99.90
38239;DHT22;24035;48.900;9.188;2024-01-11T09:58:36;-4.00;99.90
38239;DHT22;24035;48.900;9.188;2024-01-11T10:01:07;-4.00;99.90
38239;DHT22;24035;48.900;9.188;2024-01-11T10:03:34;-3.90;99.90
38239;DHT22;24035;48.900;9.188;2024-01-11T10:06:00;-3.80;99.90
38239;DHT22;24035;48.900;9.188;2024-01-11T10:08:28;-3.80;31.70
38239;DHT22;24035;48.900;9.188;2024-01-11T10:10:55;-3.80;1.00
38239;DHT22;24035;48.900;9.188;2024-01-11T10:13:27;-3.80;1.00
38239;DHT22;24035;48.900;9.188;2024-01-11T10:16:08;-3.70;1.00
38239;DHT22;24035;48.900;9.188;2024-01-11T10:18:35;-3.70;1.00
38239;DHT22;24035;48.900;9.188;2024-01-11T10:21:01;-3.60;1.00
38239;DHT22;24035;48.900;9.188;2024-01-11T10:23:28;-3.60;99.90
38239;DHT22;24035;48.900;9.188;2024-01-11T10:25:57;-3.50;99.90
38239;DHT22;24035;48.900;9.188;2024-01-11T10:28:25;-3.40;99.90
38239;DHT22;24035;48.900;9.188;2024-01-11T10:30:51;-3.30;99.90
38239;DHT22;24035;48.900;9.188;2024-01-11T10:33:20;-3.20;99.90
38239;DHT22;24035;48.900;9.188;2024-01-11T10:35:48;-3.00;99.90
38239;DHT22;24035;48.900;9.188;2024-01-11T10:38:17;-3.00;99.90
38239;DHT22;24035;48.900;9.188;2024-01-11T10:40:44;-2.90;99.90
38239;DHT22;24035;48.900;9.188;2024-01-11T10:43:10;-2.80;1.00
38239;DHT22;24035;48.900;9.188;2024-01-11T10:45:39;-2.70;1.00
38239;DHT22;24035;48.900;9.188;2024-01-11T10:48:14;-2.60;1.00
38239;DHT22;24035;48.900;9.188;2024-01-11T10:50:45;-2.50;1.00
38239;DHT22;24035;48.900;9.188;2024-01-11T10:53:45;-2.40;1.00
38239;DHT22;24035;48.900;9.188;2024-01-11T10:56:12;-2.40;1.00
38239;DHT22;24035;48.900;9.188;2024-01-11T10:58:40;-2.40;1.00
38239;DHT22;24035;48.900;9.188;2024-01-11T11:01:06;-2.40;99.90
38239;DHT22;24035;48.900;9.188;2024-01-11T11:03:34;-2.30;1.00
38239;DHT22;24035;48.900;9.188;2024-01-11T11:06:01;-2.30;1.00
38239;DHT22;24035;48.900;9.188;2024-01-11T11:08:29;-2.30;1.00
38239;DHT22;24035;48.900;9.188;2024-01-11T11:10:56;-2.40;1.00
38239;DHT22;24035;48.900;9.188;2024-01-11T11:13:23;-2.30;25.60
38239;DHT22;24035;48.900;9.188;2024-01-11T11:15:49;-2.30;1.00
38239;DHT22;24035;48.900;9.188;2024-01-11T11:18:16;-2.20;99.90
38239;DHT22;24035;48.900;9.188;2024-01-11T11:20:42;-2.10;99.90
38239;DHT22;24035;48.900;9.188;2024-01-11T11:23:10;-2.10;99.90
38239;DHT22;24035;48.900;9.188;2024-01-11T11:25:36;-2.10;1.00
38239;DHT22;24035;48.900;9.188;2024-01-11T11:28:03;-2.00;1.00
38239;DHT22;24035;48.900;9.188;2024-01-11T11:30:32;-2.00;1.00
38239;DHT22;24035;48.900;9.188;2024-01-11T11:32:58;-2.00;1.00
38239;DHT22;24035;48.900;9.188;2024-01-11T11:35:32;-2.00;1.00
38239;DHT22;24035;48.900;9.188;2024-01-11T11:37:58;-1.90;1.00
38239;DHT22;24035;48.900;9.188;2024-01-11T11:40:38;-1.80;1.00
38239;DHT22;24035;48.900;9.188;2024-01-11T11:43:06;-1.70;1.00
38239;DHT22;24035;48.900;9.188;2024-01-11T11:45:32;-1.70;1.00
38239;DHT22;24035;48.900;9.188;2024-01-11T11:47:58;-1.70;1.00
38239;DHT22;24035;48.900;9.188;2024-01-11T11:50:24;-1.60;1.00
38239;DHT22;24035;48.900;9.188;2024-01-11T11:52:54;-1.60;1.00
38239;DHT22;24035;48.900;9.188;2024-01-11T11:55:24;-1.60;1.00
38239;DHT22;24035;48.900;9.188;2024-01-11T11:57:51;-1.60;1.00
38239;DHT22;24035;48.900;9.188;2024-01-11T12:00:22;-1.50;99.90
38239;DHT22;24035;48.900;9.188;2024-01-11T12:02:50;-1.40;99.90
38239;DHT22;24035;48.900;9.188;2024-01-11T12:05:17;-1.30;99.90
38239;DHT22;24035;48.900;9.188;2024-01-11T12:07:46;-1.30;99.90
38239;DHT22;24035;48.900;9.188;2024-01-11T12:10:14;-1.30;99.90
38239;DHT22;24035;48.900;9.188;2024-01-11T12:12:39;-1.20;99.90
38239;DHT22;24035;48.900;9.188;2024-01-11T12:15:05;-1.20;4.50
38239;DHT22;24035;48.900;9.188;2024-01-11T12:17:31;-1.20;25.30
38239;DHT22;24035;48.900;9.188;2024-01-11T12:19:57;-1.10;18.50
38239;DHT22;24035;48.900;9.188;2024-01-11T12:22:24;-1.00;1.00
38239;DHT22;24035;48.900;9.188;2024-01-11T12:24:49;-0.90;1.00
38239;DHT22;24035;48.900;9.188;2024-01-11T12:27:15;-1.00;1.00
38239;DHT22;24035;48.900;9.188;2024-01-11T12:29:42;-1.00;1.00
38239;DHT22;24035;48.900;9.188;2024-01-11T12:32:08;-1.00;1.00
38239;DHT22;24035;48.900;9.188;2024-01-11T12:34:36;-0.90;1.00
38239;DHT22;24035;48.900;9.188;2024-01-11T12:37:03;-0.90;1.00
38239;DHT22;24035;48.900;9.188;2024-01-11T12:39:31;-0.90;1.00
38239;DHT22;24035;48.900;9.188;2024-01-11T12:41:56;-0.90;1.00
38239;DHT22;24035;48.900;9.188;2024-01-11T12:44:24;-0.90;1.00
38239;DHT22;24035;48.900;9.188;2024-01-11T12:46:52;-0.90;1.00
38239;DHT22;24035;48.900;9.188;2024-01-11T12:49:19;-0.90;1.00
38239;DHT22;24035;48.900;9.188;2024-01-11T12:51:45;-0.90;1.00
38239;DHT22;24035;48.900;9.188;2024-01-11T12:54:13;-0.90;1.00
38239;DHT22;24035;48.900;9.188;2024-01-11T12:56:43;-0.80;1.00
38239;DHT22;24035;48.900;9.188;2024-01-11T12:59:12;-0.90;1.00
38239;DHT22;24035;48.900;9.188;2024-01-11T13:01:41;-0.90;1.00
38239;DHT22;24035;48.900;9.188;2024-01-11T13:04:09;-0.90;1.00
38239;DHT22;24035;48.900;9.188;2024-01-11T13:06:35;-0.80;1.00
38239;DHT22;24035;48.900;9.188;2024-01-11T13:09:01;-0.80;1.00
38239;DHT22;24035;48.900;9.188;2024-01-11T13:11:27;-0.80;1.00
38239;DHT22;24035;48.900;9.188;2024-01-11T13:13:54;-0.80;1.00
38239;DHT22;24035;48.900;9.188;2024-01-11T13:16:20;-0.70;1.00
38239;DHT22;24035;48.900;9.188;2024-01-11T13:18:46;-0.60;1.00
38239;DHT22;24035;48.900;9.188;2024-01-11T13:21:12;-0.60;1.00
38239;DHT22;24035;48.900;9.188;2024-01-11T13:23:38;-0.50;1.00
38239;DHT22;24035;48.900;9.188;2024-01-11T13:26:06;-0.50;1.00
38239;DHT22;24035;48.900;9.188;2024-01-11T13:28:33;-0.50;1.00
38239;DHT22;24035;48.900;9.188;2024-01-11T13:30:59;-0.70;1.00
38239;DHT22;24035;48.900;9.188;2024-01-11T13:33:25;-0.70;1.00
38239;DHT22;24035;48.900;9.188;2024-01-11T13:35:51;-0.70;1.00
38239;DHT22;24035;48.900;9.188;2024-01-11T13:38:18;-0.70;1.00
38239;DHT22;24035;48.900;9.188;2024-01-11T13:40:43;-0.70;1.00
38239;DHT22;24035;48.900;9.188;2024-01-11T13:43:10;-0.60;1.00
38239;DHT22;24035;48.900;9.188;2024-01-11T13:45:36;-0.70;1.00
38239;DHT22;24035;48.900;9.188;2024-01-11T13:48:03;-0.70;1.00
38239;DHT22;24035;48.900;9.188;2024-01-11T13:50:29;-0.70;1.00
38239;DHT22;24035;48.900;9.188;2024-01-11T13:52:55;-0.70;1.00
38239;DHT22;24035;48.900;9.188;2024-01-11T13:55:21;-0.70;1.00
38239;DHT22;24035;48.900;9.188;2024-01-11T13:57:51;-0.70;1.00
38239;DHT22;24035;48.900;9.188;2024-01-11T14:00:17;-0.80;1.00
38239;DHT22;24035;48.900;9.188;2024-01-11T14:02:45;-0.70;1.00
38239;DHT22;24035;48.900;9.188;2024-01-11T14:05:11;-0.60;1.00
38239;DHT22;24035;48.900;9.188;2024-01-11T14:07:39;-0.60;1.00
38239;DHT22;24035;48.900;9.188;2024-01-11T14:10:07;-0.60;1.00
38239;DHT22;24035;48.900;9.188;2024-01-11T14:12:35;-0.60;1.00
38239;DHT22;24035;48.900;9.188;2024-01-11T14:15:05;-0.50;1.00
38239;DHT22;24035;48.900;9.188;2024-01-11T14:17:33;-0.50;1.00
38239;DHT22;24035;48.900;9.188;2024-01-11T14:19:59;-0.50;1.00
38239;DHT22;24035;48.900;9.188;2024-01-11T14:22:26;-0.50;1.00
38239;DHT22;24035;48.900;9.188;2024-01-11T14:24:52;-0.50;1.00
38239;DHT22;24035;48.900;9.188;2024-01-11T14:27:20;-0.50;1.00
38239;DHT22;24035;48.900;9.188;2024-01-11T14:29:48;-0.50;1.00
38239;DHT22;24035;48.900;9.188;2024-01-11T14:32:14;-0.60;1.00
38239;DHT22;24035;48.900;9.188;2024-01-11T14:34:44;-0.60;1.00
38239;DHT22;24035;48.900;9.188;2024-01-11T14:37:13;-0.60;1.00
38239;DHT22;24035;48.900;9.188;2024-01-11T14:39:40;-0.70;1.00
38239;DHT22;24035;48.900;9.188;2024-01-11T14:42:06;-0.70;1.00
38239;DHT22;24035;48.900;9.188;2024-01-11T14:44:35;-0.70;1.00
38239;DHT22;24035;48.900;9.188;2024-01-11T14:47:01;-0.80;1.00
38239;DHT22;24035;48.900;9.188;2024-01-11T14:49:27;-0.80;1.00
38239;DHT22;24035;48.900;9.188;2024-01-11T14:51:55;-0.80;1.00
38239;DHT22;24035;48.900;9.188;2024-01-11T14:54:21;-0.90;1.00
38239;DHT22;24035;48.900;9.188;2024-01-11T14:56:47;-0.70;1.00
38239;DHT22;24035;48.900;9.188;2024-01-11T14:59:16;-0.80;1.00
38239;DHT22;24035;48.900;9.188;2024-01-11T15:01:42;-0.80;1.00
38239;DHT22;24035;48.900;9.188;2024-01-11T15:04:08;-0.80;1.00
38239;DHT22;24035;48.900;9.188;2024-01-11T15:06:33;-0.80;1.00
38239;DHT22;24035;48.900;9.188;2024-01-11T15:08:59;-0.90;1.00
38239;DHT22;24035;48.900;9.188;2024-01-11T15:11:24;-1.00;1.00
38239;DHT22;24035;48.900;9.188;2024-01-11T15:13:51;-1.00;1.00
38239;DHT22;24035;48.900;9.188;2024-01-11T15:16:16;-1.00;1.00
38239;DHT22;24035;48.900;9.188;2024-01-11T15:18:42;-1.00;1.00
38239;DHT22;24035;48.900;9.188;2024-01-11T15:21:08;-1.00;1.00
38239;DHT22;24035;48.900;9.188;2024-01-11T15:23:33;-1.10;1.00
38239;DHT22;24035;48.900;9.188;2024-01-11T15:26:00;-1.00;1.00
38239;DHT22;24035;48.900;9.188;2024-01-11T15:28:27;-1.00;1.00
38239;DHT22;24035;48.900;9.188;2024-01-11T15:30:52;-1.00;1.00
38239;DHT22;24035;48.900;9.188;2024-01-11T15:33:18;-1.00;1.00
38239;DHT22;24035;48.900;9.188;2024-01-11T15:35:44;-1.10;1.00